Nan — V4ND2 — position and weather

sailwx.info

Track history (hours):
 
Tides and Currents Weather Stations Pressure Air Temp Water Temp Dewpoint Dewpoint Depression Visibility Wind Speed Wind Dir Waves Ship Positions

Nan

Last reported at 2017-Sep-18 14:34 UTC. Time now 2017-Sep-23 03:41 UTC.
Position N 17°07' W 061°46'.

Length 26 m; draft 9 m.

Type: Tug. MMSI: 341223000.

Date/timePositionNaut miles runAvg speedWind from/ knotsBaromVisibWave heightAir tempDewpointWater temp
2017-Sep-18 14:34N 17°07' W 061°46'0 0.0
2017-Sep-18 14:30N 17°07' W 061°46'0 0.2
2017-Sep-18 14:00N 17°07' W 061°46'0 0.9
2017-Sep-18 13:30N 17°08' W 061°46'2 3.6
2017-Sep-18 13:00N 17°09' W 061°46'2 3.4
2017-Sep-18 12:30N 17°10' W 061°48'2 3.2
2017-Sep-18 12:00N 17°11' W 061°49'1 2.7
2017-Sep-18 11:30N 17°10' W 061°51'2 3.1
2017-Sep-18 11:00N 17°10' W 061°52'2 3.6
2017-Sep-18 10:30N 17°08' W 061°52'1 2.7
2017-Sep-18 10:00N 17°07' W 061°51'0 0.0
2017-Sep-18 09:30N 17°07' W 061°51'0 0.0
2017-Sep-18 09:00N 17°07' W 061°51'0 0.0
2017-Sep-18 08:30N 17°07' W 061°51'0 0.0
2017-Sep-18 08:00N 17°07' W 061°51'0 0.0
2017-Sep-17 16:00N 17°07' W 061°51'2 5.0
2017-Sep-17 15:30N 17°10' W 061°52'4 7.9
2017-Sep-17 15:00N 17°10' W 061°48'4 7.3
2017-Sep-17 14:30N 17°08' W 061°46'1 1.1
2017-Sep-17 14:00N 17°07' W 061°46'1 1.7
2017-Sep-17 13:30N 17°08' W 061°46'2 4.6
2017-Sep-17 13:00N 17°10' W 061°47'2 4.4
2017-Sep-17 12:30N 17°11' W 061°49'2 4.3
2017-Sep-17 12:00N 17°10' W 061°52'2 4.2
2017-Sep-17 11:30N 17°08' W 061°53'2 3.2
2017-Sep-17 11:00N 17°07' W 061°51'0 0.0
2017-Sep-17 10:30N 17°07' W 061°51'0 0.0
2017-Sep-17 10:00N 17°07' W 061°51'0 0.0
2017-Sep-15 15:55N 17°07' W 061°51'0 0.0
2017-Sep-15 15:31N 17°07' W 061°51'0 0.0
2017-Sep-15 15:01N 17°07' W 061°51'0 0.0
2017-Sep-15 14:30N 17°07' W 061°51'0 0.0
2017-Sep-15 14:00N 17°07' W 061°51'0 0.0
2017-Sep-15 13:30N 17°07' W 061°51'0 0.0
2017-Sep-15 13:01N 17°07' W 061°51'0 0.0
2017-Sep-15 12:30N 17°07' W 061°51'0 0.0
2017-Sep-15 12:00N 17°07' W 061°51'0 0.0
2017-Sep-15 11:31N 17°07' W 061°51'0 0.0
2017-Sep-14 17:13N 17°07' W 061°51'0 0.0
2017-Sep-14 17:00N 17°07' W 061°51'0 0.2
2017-Sep-14 16:30N 17°07' W 061°51'2 3.2
2017-Sep-14 16:00N 17°08' W 061°52'1 1.1
2017-Sep-14 15:30N 17°09' W 061°52'0 0.0
2017-Sep-14 15:00N 17°09' W 061°52'0 0.0
2017-Sep-14 14:30N 17°09' W 061°52'1 1.1
2017-Sep-14 14:00N 17°08' W 061°52'2 3.1
2017-Sep-14 13:30N 17°07' W 061°51'0 0.2
2017-Sep-14 13:00N 17°07' W 061°51'0 0.0
2017-Sep-14 12:30N 17°07' W 061°51'0 0.0
2017-Sep-14 12:00N 17°07' W 061°51'0 0.0
2017-Sep-14 11:30N 17°07' W 061°51'0 0.0
2017-Sep-13 17:16N 17°07' W 061°51'0 0.0
2017-Sep-13 17:00N 17°07' W 061°51'0 0.1
2017-Sep-13 16:30N 17°07' W 061°51'0 0.0
2017-Sep-13 16:00N 17°07' W 061°51'0 0.0
2017-Sep-13 15:30N 17°07' W 061°51'0 0.0
2017-Sep-13 15:00N 17°07' W 061°51'0 0.0
2017-Sep-13 14:30N 17°07' W 061°51'0 0.2
2017-Sep-13 14:00N 17°07' W 061°51'0 0.0
2017-Sep-13 13:30N 17°07' W 061°51'0 0.0
2017-Sep-13 13:00N 17°07' W 061°51'0 0.0
2017-Sep-13 12:30N 17°07' W 061°51'0 0.0
2017-Sep-13 12:00N 17°07' W 061°51'0 0.0
2017-Sep-13 11:30N 17°07' W 061°51'0 0.0
2017-Sep-12 18:37N 17°07' W 061°51'0 0.0
2017-Sep-12 18:30N 17°07' W 061°51'0 0.0
2017-Sep-12 18:00N 17°07' W 061°51'0 0.2
2017-Sep-12 17:30N 17°07' W 061°51'2 3.3
2017-Sep-12 17:00N 17°08' W 061°53'0 0.6
2017-Sep-12 16:30N 17°08' W 061°53'1 3.0
2017-Sep-12 16:00N 17°10' W 061°52'3 5.1
2017-Sep-12 15:30N 17°11' W 061°50'2 4.6
2017-Sep-12 15:00N 17°10' W 061°48'2 4.5
2017-Sep-12 14:30N 17°09' W 061°46'1 2.8
2017-Sep-12 14:00N 17°07' W 061°46'0 0.9
2017-Sep-12 13:30N 17°07' W 061°46'0 0.7
2017-Sep-12 13:00N 17°07' W 061°46'3 6.5
2017-Sep-12 12:30N 17°10' W 061°47'3 6.7
2017-Sep-12 12:00N 17°10' W 061°51'3 5.8
2017-Sep-12 11:30N 17°08' W 061°52'1 1.9
2017-Sep-12 11:00N 17°07' W 061°51'0 0.0
2017-Sep-11 18:38N 17°07' W 061°51'0 0.1
2017-Sep-11 18:30N 17°07' W 061°51'0 0.2
2017-Sep-11 18:00N 17°07' W 061°51'2 3.6
2017-Sep-11 17:30N 17°08' W 061°53'2 4.2
2017-Sep-11 17:00N 17°10' W 061°51'2 4.8
2017-Sep-11 16:30N 17°11' W 061°49'2 4.7
2017-Sep-11 16:00N 17°09' W 061°47'2 4.1
2017-Sep-11 15:30N 17°08' W 061°46'0 0.9
2017-Sep-11 15:00N 17°07' W 061°46'  
Track history (hours):
 
Tides and Currents Weather Stations Pressure Air Temp Water Temp Dewpoint Dewpoint Depression Visibility Wind Speed Wind Dir Waves Ship Positions

Nan

Last reported at 2017-Sep-18 14:34 UTC. Time now 2017-Sep-23 03:41 UTC.
Position N 17°07' W 061°46'.

Length 26 m; draft 9 m.

Type: Tug. MMSI: 341223000.

Date/timePositionNaut miles runAvg speedWind from/ knotsBaromVisibWave heightAir tempDewpointWater temp
2017-Sep-18 14:34N 17°07' W 061°46'0 0.0
2017-Sep-18 14:30N 17°07' W 061°46'0 0.2
2017-Sep-18 14:00N 17°07' W 061°46'0 0.9
2017-Sep-18 13:30N 17°08' W 061°46'2 3.6
2017-Sep-18 13:00N 17°09' W 061°46'2 3.4
2017-Sep-18 12:30N 17°10' W 061°48'2 3.2
2017-Sep-18 12:00N 17°11' W 061°49'1 2.7
2017-Sep-18 11:30N 17°10' W 061°51'2 3.1
2017-Sep-18 11:00N 17°10' W 061°52'2 3.6
2017-Sep-18 10:30N 17°08' W 061°52'1 2.7
2017-Sep-18 10:00N 17°07' W 061°51'0 0.0
2017-Sep-18 09:30N 17°07' W 061°51'0 0.0
2017-Sep-18 09:00N 17°07' W 061°51'0 0.0
2017-Sep-18 08:30N 17°07' W 061°51'0 0.0
2017-Sep-18 08:00N 17°07' W 061°51'0 0.0
2017-Sep-17 16:00N 17°07' W 061°51'2 5.0
2017-Sep-17 15:30N 17°10' W 061°52'4 7.9
2017-Sep-17 15:00N 17°10' W 061°48'4 7.3
2017-Sep-17 14:30N 17°08' W 061°46'1 1.1
2017-Sep-17 14:00N 17°07' W 061°46'1 1.7
2017-Sep-17 13:30N 17°08' W 061°46'2 4.6
2017-Sep-17 13:00N 17°10' W 061°47'2 4.4
2017-Sep-17 12:30N 17°11' W 061°49'2 4.3
2017-Sep-17 12:00N 17°10' W 061°52'2 4.2
2017-Sep-17 11:30N 17°08' W 061°53'2 3.2
2017-Sep-17 11:00N 17°07' W 061°51'0 0.0
2017-Sep-17 10:30N 17°07' W 061°51'0 0.0
2017-Sep-17 10:00N 17°07' W 061°51'0 0.0
2017-Sep-15 15:55N 17°07' W 061°51'0 0.0
2017-Sep-15 15:31N 17°07' W 061°51'0 0.0
2017-Sep-15 15:01N 17°07' W 061°51'0 0.0
2017-Sep-15 14:30N 17°07' W 061°51'0 0.0
2017-Sep-15 14:00N 17°07' W 061°51'0 0.0
2017-Sep-15 13:30N 17°07' W 061°51'0 0.0
2017-Sep-15 13:01N 17°07' W 061°51'0 0.0
2017-Sep-15 12:30N 17°07' W 061°51'0 0.0
2017-Sep-15 12:00N 17°07' W 061°51'0 0.0
2017-Sep-15 11:31N 17°07' W 061°51'0 0.0
2017-Sep-14 17:13N 17°07' W 061°51'0 0.0
2017-Sep-14 17:00N 17°07' W 061°51'0 0.2
2017-Sep-14 16:30N 17°07' W 061°51'2 3.2
2017-Sep-14 16:00N 17°08' W 061°52'1 1.1
2017-Sep-14 15:30N 17°09' W 061°52'0 0.0
2017-Sep-14 15:00N 17°09' W 061°52'0 0.0
2017-Sep-14 14:30N 17°09' W 061°52'1 1.1
2017-Sep-14 14:00N 17°08' W 061°52'2 3.1
2017-Sep-14 13:30N 17°07' W 061°51'0 0.2
2017-Sep-14 13:00N 17°07' W 061°51'0 0.0
2017-Sep-14 12:30N 17°07' W 061°51'0 0.0
2017-Sep-14 12:00N 17°07' W 061°51'0 0.0
2017-Sep-14 11:30N 17°07' W 061°51'0 0.0
2017-Sep-13 17:16N 17°07' W 061°51'0 0.0
2017-Sep-13 17:00N 17°07' W 061°51'0 0.1
2017-Sep-13 16:30N 17°07' W 061°51'0 0.0
2017-Sep-13 16:00N 17°07' W 061°51'0 0.0
2017-Sep-13 15:30N 17°07' W 061°51'0 0.0
2017-Sep-13 15:00N 17°07' W 061°51'0 0.0
2017-Sep-13 14:30N 17°07' W 061°51'0 0.2
2017-Sep-13 14:00N 17°07' W 061°51'0 0.0
2017-Sep-13 13:30N 17°07' W 061°51'0 0.0
2017-Sep-13 13:00N 17°07' W 061°51'0 0.0
2017-Sep-13 12:30N 17°07' W 061°51'0 0.0
2017-Sep-13 12:00N 17°07' W 061°51'0 0.0
2017-Sep-13 11:30N 17°07' W 061°51'0 0.0
2017-Sep-12 18:37N 17°07' W 061°51'0 0.0
2017-Sep-12 18:30N 17°07' W 061°51'0 0.0
2017-Sep-12 18:00N 17°07' W 061°51'0 0.2
2017-Sep-12 17:30N 17°07' W 061°51'2 3.3
2017-Sep-12 17:00N 17°08' W 061°53'0 0.6
2017-Sep-12 16:30N 17°08' W 061°53'1 3.0
2017-Sep-12 16:00N 17°10' W 061°52'3 5.1
2017-Sep-12 15:30N 17°11' W 061°50'2 4.6
2017-Sep-12 15:00N 17°10' W 061°48'2 4.5
2017-Sep-12 14:30N 17°09' W 061°46'1 2.8
2017-Sep-12 14:00N 17°07' W 061°46'0 0.9
2017-Sep-12 13:30N 17°07' W 061°46'0 0.7
2017-Sep-12 13:00N 17°07' W 061°46'3 6.5
2017-Sep-12 12:30N 17°10' W 061°47'3 6.7
2017-Sep-12 12:00N 17°10' W 061°51'3 5.8
2017-Sep-12 11:30N 17°08' W 061°52'1 1.9
2017-Sep-12 11:00N 17°07' W 061°51'0 0.0
2017-Sep-11 18:38N 17°07' W 061°51'0 0.1
2017-Sep-11 18:30N 17°07' W 061°51'0 0.2
2017-Sep-11 18:00N 17°07' W 061°51'2 3.6
2017-Sep-11 17:30N 17°08' W 061°53'2 4.2
2017-Sep-11 17:00N 17°10' W 061°51'2 4.8
2017-Sep-11 16:30N 17°11' W 061°49'2 4.7
2017-Sep-11 16:00N 17°09' W 061°47'2 4.1
2017-Sep-11 15:30N 17°08' W 061°46'0 0.9
2017-Sep-11 15:00N 17°07' W 061°46'  

Dump ship's entire track history